Time;durP1;ratioP1;P1;durP2;ratioP2;P2;SDS_P1;SDS_P2;PMS_P1;PMS_P2;Temp;Humidity;BMP_temperature;BMP_pressure;BME280_temperature;BME280_humidity;BME280_pressure;Samples;Min_cycle;Max_cycle;Signal;HPM_P1;HPM_P2
2023/01/18 00:01:52;;;;;;;5.30;3.70;;;-0.90;99.90;;;;;;5030046;28;20033;-84
2023/01/18 00:04:17;;;;;;;6.17;3.97;;;-0.90;99.90;;;;;;5029859;28;20048;-84
2023/01/18 00:06:43;;;;;;;7.37;3.70;;;-1.00;99.90;;;;;;5030188;28;20056;-84
2023/01/18 00:09:08;;;;;;;6.87;4.00;;;-1.00;99.90;;;;;;5013300;28;20038;-85
2023/01/18 00:11:34;;;;;;;6.27;3.83;;;-1.00;99.90;;;;;;5029957;28;20394;-84
2023/01/18 00:14:01;;;;;;;8.33;4.00;;;-1.00;99.90;;;;;;5048479;28;20043;-85
2023/01/18 00:16:29;;;;;;;7.90;4.00;;;-1.00;99.90;;;;;;5033114;28;20044;-85
2023/01/18 00:18:58;;;;;;;6.40;4.00;;;-1.00;99.90;;;;;;5049477;28;20048;-84
2023/01/18 00:21:25;;;;;;;5.67;3.80;;;-1.00;99.90;;;;;;5033351;28;20096;-84
2023/01/18 00:23:51;;;;;;;7.80;4.17;;;-0.90;99.90;;;;;;5048872;28;20064;-85
2023/01/18 00:26:17;;;;;;;7.63;4.00;;;-0.90;99.90;;;;;;5048664;28;20041;-85
2023/01/18 00:28:43;;;;;;;5.47;3.93;;;-0.90;99.90;;;;;;5049509;28;20067;-85
2023/01/18 00:31:10;;;;;;;5.53;4.07;;;-0.90;99.90;;;;;;5050107;28;20123;-86
2023/01/18 00:33:36;;;;;;;5.20;3.63;;;-0.90;99.90;;;;;;5053678;28;20380;-84
2023/01/18 00:36:03;;;;;;;5.50;3.47;;;-0.90;99.90;;;;;;5053326;28;20040;-85
2023/01/18 00:38:29;;;;;;;7.57;3.90;;;-0.90;99.90;;;;;;5053333;28;20044;-85
2023/01/18 00:40:55;;;;;;;6.53;3.87;;;-0.90;99.90;;;;;;5036741;28;20036;-84
2023/01/18 00:43:39;;;;;;;8.67;3.63;;;-0.90;99.90;;;;;;5053831;28;20044;-86
2023/01/18 00:46:08;;;;;;;7.05;4.53;;;-0.90;99.90;;;;;;5053554;28;20410;-85
2023/01/18 00:48:34;;;;;;;6.03;3.90;;;-0.90;99.90;;;;;;5053040;28;20044;-86
2023/01/18 00:51:00;;;;;;;5.70;3.63;;;-0.90;99.90;;;;;;5052999;28;20044;-85
2023/01/18 00:53:26;;;;;;;6.00;4.23;;;-0.90;99.90;;;;;;5036297;28;20438;-85
2023/01/18 00:55:52;;;;;;;7.50;4.03;;;-1.00;99.90;;;;;;5036358;28;20041;-85
2023/01/18 00:58:18;;;;;;;5.83;3.70;;;-1.00;99.90;;;;;;5052870;28;20045;-85
2023/01/18 01:00:43;;;;;;;5.17;3.27;;;-1.00;99.90;;;;;;5036262;28;20041;-85
2023/01/18 01:03:09;;;;;;;7.63;3.90;;;-1.00;99.90;;;;;;5036334;28;20132;-85
2023/01/18 01:08:22;;;;;;;6.60;3.60;;;-1.00;99.90;;;;;;5052690;28;20458;-85
2023/01/18 01:10:50;;;;;;;7.60;4.50;;;-1.00;99.90;;;;;;5051761;28;20041;-85
2023/01/18 01:27:05;;;;;;;5.53;4.15;;;-1.10;99.90;;;;;;5052677;28;20049;-86
2023/01/18 01:29:31;;;;;;;9.43;4.70;;;-1.20;99.90;;;;;;5052595;28;20076;-86
2023/01/18 01:31:56;;;;;;;8.97;4.43;;;-1.20;99.90;;;;;;5036021;28;20044;-86
2023/01/18 01:34:22;;;;;;;6.23;4.27;;;-1.20;99.90;;;;;;5052489;28;20056;-86
2023/01/18 01:36:49;;;;;;;5.67;4.40;;;-1.20;99.90;;;;;;5035691;28;20045;-86
2023/01/18 01:39:15;;;;;;;5.50;4.10;;;-1.20;99.90;;;;;;5052126;28;20044;-86
2023/01/18 01:41:40;;;;;;;5.97;4.10;;;-1.30;99.90;;;;;;5052380;28;20044;-86
2023/01/18 01:44:18;;;;;;;6.97;4.20;;;-1.30;99.90;;;;;;5035458;28;20037;-86
2023/01/18 01:46:52;;;;;;;5.30;4.00;;;-1.20;99.90;;;;;;5052254;28;20049;-86
2023/01/18 01:49:22;;;;;;;;;;;-1.20;99.90;;;;;;5052814;28;20084;-86
2023/01/18 01:52:04;;;;;;;7.30;4.10;;;-1.20;99.90;;;;;;5029090;28;20393;-86
2023/01/18 01:54:29;;;;;;;6.10;4.30;;;-1.20;99.90;;;;;;5032401;28;20041;-86
2023/01/18 01:57:00;;;;;;;7.10;4.20;;;-1.20;99.90;;;;;;5028961;28;20056;-86
2023/01/18 01:59:25;;;;;;;6.40;4.10;;;-1.20;99.90;;;;;;5051728;28;20037;-86
2023/01/18 02:01:51;;;;;;;8.53;4.17;;;-1.20;99.90;;;;;;5035421;28;20526;-86
2023/01/18 02:04:17;;;;;;;6.97;4.73;;;-1.20;99.90;;;;;;5051763;28;20029;-86
2023/01/18 02:06:42;;;;;;;7.10;4.97;;;-1.20;99.90;;;;;;5051964;28;20041;-85
2023/01/18 02:09:12;;;;;;;6.37;4.50;;;-1.20;99.90;;;;;;5049965;28;20361;-86
2023/01/18 02:11:39;;;;;;;9.67;5.00;;;-1.20;99.90;;;;;;5050777;28;20037;-85
2023/01/18 02:14:12;;;;;;;8.03;4.80;;;-1.20;99.90;;;;;;5035064;28;20088;-85
2023/01/18 02:17:15;;;;;;;7.93;4.90;;;-1.10;99.90;;;;;;5051548;28;20041;-85
2023/01/18 02:20:03;;;;;;;6.70;4.70;;;-1.30;99.90;;;;;;5051437;28;20410;-85
2023/01/18 02:22:47;;;;;;;6.43;4.70;;;-1.30;99.90;;;;;;5051772;28;20461;-85
2023/01/18 02:25:23;;;;;;;7.80;4.88;;;-1.30;99.90;;;;;;5051364;28;20037;-85
2023/01/18 02:28:06;;;;;;;6.40;4.40;;;-1.30;99.90;;;;;;5051143;28;20502;-85
2023/01/18 02:30:40;;;;;;;8.50;4.93;;;-1.30;99.90;;;;;;5034584;28;20041;-85
2023/01/18 02:33:14;;;;;;;7.47;5.13;;;-1.30;99.90;;;;;;5034561;28;20137;-85
2023/01/18 02:35:46;;;;;;;8.87;5.37;;;-1.30;99.90;;;;;;5051128;28;20128;-86
2023/01/18 02:38:23;;;;;;;5.80;4.60;;;-1.20;99.90;;;;;;5034323;28;20091;-85
2023/01/18 02:41:10;;;;;;;7.23;4.83;;;-1.30;99.90;;;;;;5051530;28;20040;-85
2023/01/18 02:46:29;;;;;;;8.13;5.23;;;-1.30;99.90;;;;;;5051083;28;20056;-85
2023/01/18 02:48:57;;;;;;;7.07;5.00;;;-1.30;99.90;;;;;;5050863;28;20052;-86
2023/01/18 02:51:23;;;;;;;8.00;5.07;;;-1.30;99.90;;;;;;5034321;28;20081;-86
2023/01/18 02:53:49;;;;;;;6.60;4.70;;;-1.30;99.90;;;;;;5050766;28;20403;-85
2023/01/18 02:56:27;;;;;;;10.57;5.43;;;-1.30;99.90;;;;;;5033973;28;20041;-86
2023/01/18 02:59:03;;;;;;;8.50;4.60;;;-0.70;99.90;;;;;;5050615;28;20049;-86
2023/01/18 03:01:39;;;;;;;6.83;4.70;;;-1.30;99.90;;;;;;5034179;28;20043;-86
2023/01/18 03:04:57;;;;;;;6.87;5.17;;;-1.30;99.90;;;;;;5034562;28;20605;-86
2023/01/18 03:07:28;;;;;;;7.83;5.47;;;-1.40;99.90;;;;;;5048338;28;20051;-86
2023/01/18 03:09:55;;;;;;;8.70;5.10;;;-1.40;99.90;;;;;;5050585;28;20462;-85
2023/01/18 03:12:50;;;;;;;8.33;5.57;;;-1.30;99.90;;;;;;5034124;28;20094;-86
2023/01/18 03:15:33;;;;;;;7.43;5.07;;;-1.40;99.90;;;;;;5034240;28;20116;-86
2023/01/18 03:18:09;;;;;;;9.00;5.37;;;-1.40;99.90;;;;;;5033541;28;20055;-86
2023/01/18 03:20:45;;;;;;;9.20;6.07;;;-1.40;99.90;;;;;;5050491;28;20041;-86
2023/01/18 03:23:44;;;;;;;8.67;5.47;;;-1.50;99.90;;;;;;5050317;28;20113;-85
2023/01/18 03:26:17;;;;;;;7.07;5.63;;;-1.50;99.90;;;;;;5017538;28;20057;-85
2023/01/18 03:34:41;;;;;;;;;;;-1.60;99.90;;;;;;5050459;28;20052;-85
2023/01/18 03:37:12;;;;;;;8.80;6.00;;;-1.60;99.90;;;;;;5050252;28;19920;-86
2023/01/18 03:39:44;;;;;;;8.40;6.07;;;-1.60;99.90;;;;;;5050125;28;20037;-85
2023/01/18 03:42:14;;;;;;;7.67;5.40;;;-1.70;99.90;;;;;;5033522;28;20044;-85
2023/01/18 03:44:50;;;;;;;10.37;6.47;;;-1.70;99.90;;;;;;5033568;28;20087;-85
2023/01/18 03:47:16;;;;;;;9.30;6.60;;;-1.70;99.90;;;;;;5050068;28;20116;-85
2023/01/18 03:49:41;;;;;;;9.50;6.20;;;-1.70;99.90;;;;;;5049848;28;20076;-85
2023/01/18 03:52:36;;;;;;;9.07;7.30;;;-1.70;99.90;;;;;;5033405;28;20550;-85
2023/01/18 03:55:13;;;;;;;10.13;6.67;;;-1.70;99.90;;;;;;5050156;28;20048;-85
2023/01/18 03:58:01;;;;;;;9.70;6.53;;;-1.70;99.90;;;;;;5049664;28;20045;-85
2023/01/18 04:00:30;;;;;;;11.70;6.90;;;-1.70;99.90;;;;;;5049913;28;20044;-86
2023/01/18 04:02:56;;;;;;;10.30;6.27;;;-1.70;99.90;;;;;;5049951;28;20029;-85
2023/01/18 04:05:21;;;;;;;12.10;7.13;;;-1.80;99.90;;;;;;5049842;28;20048;-85
2023/01/18 04:07:47;;;;;;;8.70;6.57;;;-1.80;99.90;;;;;;5036141;28;20047;-85
2023/01/18 04:10:13;;;;;;;10.60;7.00;;;-1.80;99.90;;;;;;5054185;28;20460;-84
2023/01/18 04:12:38;;;;;;;9.70;6.77;;;-1.80;99.90;;;;;;5037381;28;20132;-85
2023/01/18 04:15:05;;;;;;;10.17;7.27;;;-1.90;99.90;;;;;;5053862;28;20407;-85
2023/01/18 04:17:30;;;;;;;9.00;7.00;;;-1.90;99.90;;;;;;5046306;28;20072;-85
2023/01/18 04:19:56;;;;;;;8.93;6.90;;;-1.90;99.90;;;;;;5017439;28;20080;-85
2023/01/18 04:22:21;;;;;;;11.30;6.27;;;-1.90;99.90;;;;;;5037105;28;20041;-86
2023/01/18 04:24:47;;;;;;;12.77;7.77;;;-1.90;99.90;;;;;;5053764;28;20055;-85
2023/01/18 04:27:12;;;;;;;11.67;7.47;;;-1.90;99.90;;;;;;5054042;28;20045;-85
2023/01/18 04:29:38;;;;;;;10.97;7.07;;;-1.80;99.90;;;;;;5037106;28;20052;-84
2023/01/18 04:32:04;;;;;;;9.30;7.13;;;-1.90;99.90;;;;;;5037079;28;20040;-85
2023/01/18 04:34:30;;;;;;;10.47;7.30;;;-1.80;99.90;;;;;;5053477;28;20118;-85
2023/01/18 04:36:56;;;;;;;9.83;7.20;;;-1.80;99.90;;;;;;5053325;28;20049;-85
2023/01/18 04:39:21;;;;;;;9.20;7.00;;;-1.90;99.90;;;;;;5053235;28;20048;-85
2023/01/18 04:41:47;;;;;;;10.63;6.70;;;-1.90;99.90;;;;;;5037111;28;20036;-85
2023/01/18 04:44:12;;;;;;;10.97;7.20;;;-1.90;99.90;;;;;;5053436;28;20041;-84
2023/01/18 04:46:38;;;;;;;10.73;6.80;;;-1.90;99.90;;;;;;5053197;28;20059;-85
2023/01/18 04:49:05;;;;;;;12.13;7.90;;;-1.90;99.90;;;;;;5053220;28;20222;-85
2023/01/18 04:51:31;;;;;;;10.60;7.23;;;-1.90;99.90;;;;;;5050288;28;20056;-84
2023/01/18 04:54:00;;;;;;;9.20;6.97;;;-1.90;99.90;;;;;;5033194;28;20392;-85
2023/01/18 04:56:26;;;;;;;9.50;6.93;;;-1.90;99.90;;;;;;5048031;28;20048;-85
2023/01/18 04:58:53;;;;;;;10.30;6.87;;;-1.90;99.90;;;;;;5053065;28;20112;-85
2023/01/18 05:01:19;;;;;;;10.17;7.20;;;-1.80;99.90;;;;;;5053193;28;20544;-85
2023/01/18 05:03:45;;;;;;;10.00;7.30;;;-1.80;99.90;;;;;;5036358;28;20041;-83
2023/01/18 05:06:12;;;;;;;9.60;6.90;;;-1.40;99.90;;;;;;5036101;28;20423;-85
2023/01/18 05:08:41;;;;;;;11.10;7.07;;;-1.80;99.90;;;;;;5052829;28;20089;-84
2023/01/18 05:11:10;;;;;;;11.13;7.37;;;-1.80;99.90;;;;;;5052970;28;20557;-84
2023/01/18 05:13:36;;;;;;;12.03;7.90;;;-1.80;99.90;;;;;;5052939;28;20464;-84
2023/01/18 05:16:02;;;;;;;12.03;8.03;;;-1.80;99.90;;;;;;5052776;28;20434;-84
2023/01/18 05:18:28;;;;;;;13.17;7.70;;;-1.80;99.90;;;;;;5035173;28;20036;-84
2023/01/18 05:20:53;;;;;;;13.37;8.47;;;-1.80;99.90;;;;;;5052651;28;20103;-84
2023/01/18 05:23:19;;;;;;;11.70;8.40;;;-1.80;99.90;;;;;;5035901;28;20499;-84
2023/01/18 05:25:45;;;;;;;13.43;8.33;;;-1.80;99.90;;;;;;5052878;28;20037;-84
2023/01/18 05:28:10;;;;;;;12.77;8.40;;;-1.80;99.90;;;;;;5052296;28;20051;-85
2023/01/18 05:30:41;;;;;;;17.57;9.67;;;-1.80;99.90;;;;;;5036255;28;20057;-84
2023/01/18 05:33:08;;;;;;;13.63;8.77;;;-1.80;99.90;;;;;;5052379;28;20425;-84
2023/01/18 05:35:34;;;;;;;12.30;8.23;;;-1.80;99.90;;;;;;5035809;28;20051;-84
2023/01/18 05:37:59;;;;;;;14.87;8.67;;;-1.80;99.90;;;;;;5052071;28;20037;-84
2023/01/18 05:40:25;;;;;;;12.67;8.33;;;-1.80;99.90;;;;;;5052626;28;20135;-84
2023/01/18 05:42:50;;;;;;;14.67;8.40;;;-1.80;99.90;;;;;;5052314;28;20087;-84
2023/01/18 05:45:16;;;;;;;13.53;8.87;;;-1.90;99.90;;;;;;5052350;28;20044;-85
2023/01/18 05:47:41;;;;;;;11.93;8.80;;;-1.90;99.90;;;;;;5051945;28;20406;-84
2023/01/18 05:50:08;;;;;;;17.27;9.27;;;-1.90;99.90;;;;;;5052669;28;20068;-84
2023/01/18 05:52:34;;;;;;;14.00;8.63;;;-1.90;99.90;;;;;;5035298;28;20153;-84
2023/01/18 05:54:59;;;;;;;12.70;8.93;;;-1.90;99.90;;;;;;5035685;28;20115;-84
2023/01/18 05:57:25;;;;;;;14.70;9.20;;;-1.90;99.90;;;;;;5051844;28;20041;-84
2023/01/18 05:59:50;;;;;;;13.30;8.40;;;-1.90;99.90;;;;;;5051754;28;20108;-84
2023/01/18 06:02:17;;;;;;;14.87;9.17;;;-1.90;99.90;;;;;;5052017;28;20499;-84
2023/01/18 06:04:43;;;;;;;12.23;8.37;;;-1.90;99.90;;;;;;5051865;28;20490;-84
2023/01/18 06:07:09;;;;;;;12.37;8.67;;;-1.90;99.90;;;;;;5051752;28;20044;-84
2023/01/18 06:09:35;;;;;;;15.87;8.90;;;-1.80;99.90;;;;;;5035040;28;20037;-83
2023/01/18 06:12:00;;;;;;;15.43;9.60;;;-1.80;99.90;;;;;;5051793;28;20084;-84
2023/01/18 06:14:26;;;;;;;14.40;9.13;;;-0.90;99.90;;;;;;5052069;28;20045;-84
2023/01/18 06:16:51;;;;;;;13.47;9.23;;;-1.80;99.90;;;;;;5051382;28;20044;-84
2023/01/18 06:19:17;;;;;;;13.67;8.97;;;-1.80;99.90;;;;;;5051713;28;20048;-84
2023/01/18 06:21:43;;;;;;;12.30;8.53;;;-1.80;99.90;;;;;;5034720;28;20043;-84
2023/01/18 06:24:08;;;;;;;12.57;9.20;;;-1.80;99.90;;;;;;5035115;28;20033;-84
2023/01/18 06:26:34;;;;;;;13.80;8.10;;;-1.80;99.90;;;;;;5031686;28;20098;-84
2023/01/18 06:29:00;;;;;;;15.40;9.10;;;-1.80;99.90;;;;;;5030400;28;20077;-84
2023/01/18 06:31:25;;;;;;;11.97;7.80;;;-1.80;99.90;;;;;;5031318;28;20111;-84
2023/01/18 06:33:51;;;;;;;13.70;8.10;;;-1.80;99.90;;;;;;5031750;28;20049;-84
2023/01/18 06:36:16;;;;;;;12.40;8.70;;;-1.80;99.90;;;;;;5031286;28;20042;-84
2023/01/18 06:38:42;;;;;;;17.63;9.17;;;-1.80;99.90;;;;;;5031416;28;20041;-84
2023/01/18 06:41:08;;;;;;;13.77;8.93;;;-1.90;99.90;;;;;;5015099;28;20038;-83
2023/01/18 06:43:34;;;;;;;12.63;8.67;;;-1.80;99.90;;;;;;5031326;28;20402;-84
2023/01/18 06:45:59;;;;;;;12.23;8.30;;;-1.80;99.90;;;;;;5031137;28;20120;-84
2023/01/18 06:48:26;;;;;;;15.83;8.97;;;-1.80;99.90;;;;;;5030834;28;20140;-84
2023/01/18 06:50:54;;;;;;;15.33;9.07;;;-1.80;99.90;;;;;;5031376;28;20123;-83
2023/01/18 06:53:21;;;;;;;15.90;9.17;;;-1.80;99.90;;;;;;5036398;28;21515;-84
2023/01/18 06:56:13;;;;;;;16.83;9.07;;;-1.80;99.90;;;;;;5028017;28;20547;-84
2023/01/18 06:58:39;;;;;;;16.53;9.50;;;-1.90;99.90;;;;;;5037825;28;20081;-84
2023/01/18 07:01:04;;;;;;;15.13;10.20;;;-1.80;99.90;;;;;;5030523;28;20053;-84
2023/01/18 07:03:34;;;;;;;15.40;9.80;;;-1.80;99.90;;;;;;5030265;28;20033;-83
2023/01/18 07:06:02;;;;;;;13.47;8.53;;;-1.80;99.90;;;;;;5030688;28;20128;-83
2023/01/18 07:08:29;;;;;;;13.10;9.20;;;-1.80;99.90;;;;;;5047448;28;20106;-83
2023/01/18 07:10:56;;;;;;;16.43;9.67;;;-1.80;99.90;;;;;;5050716;28;20041;-83
2023/01/18 07:13:23;;;;;;;15.97;10.00;;;-1.80;99.90;;;;;;5050300;28;20099;-83
2023/01/18 07:15:57;;;;;;;13.67;9.33;;;-1.80;99.90;;;;;;5050423;28;20045;-83
2023/01/18 07:18:23;;;;;;;14.43;9.50;;;-1.80;99.90;;;;;;5050408;28;20058;-83
2023/01/18 07:21:00;;;;;;;13.57;9.30;;;-1.80;99.90;;;;;;5049839;28;20040;-83
2023/01/18 07:23:26;;;;;;;15.47;9.50;;;-1.90;99.90;;;;;;5050596;28;20120;-84
2023/01/18 07:26:04;;;;;;;14.63;10.27;;;-1.80;99.90;;;;;;5050604;28;20037;-84
2023/01/18 07:28:30;;;;;;;16.80;9.90;;;-0.70;99.90;;;;;;5033924;28;20036;-84
2023/01/18 07:30:56;;;;;;;13.77;9.53;;;-1.80;99.90;;;;;;5050560;28;20102;-84
2023/01/18 07:33:22;;;;;;;15.50;9.33;;;-1.80;99.90;;;;;;5050511;28;20465;-84
2023/01/18 07:35:51;;;;;;;14.97;9.67;;;-1.80;99.90;;;;;;5050231;28;20116;-84
2023/01/18 07:38:17;;;;;;;17.77;10.07;;;-1.80;99.90;;;;;;5049379;28;20041;-84
2023/01/18 07:40:43;;;;;;;12.03;8.47;;;-1.80;99.90;;;;;;5048421;28;20043;-84
2023/01/18 07:43:08;;;;;;;16.20;9.47;;;-1.80;99.90;;;;;;5031290;28;20379;-84
2023/01/18 07:45:35;;;;;;;18.57;9.60;;;-1.80;99.90;;;;;;5048802;28;20056;-84
2023/01/18 07:48:00;;;;;;;15.90;8.80;;;-1.80;99.90;;;;;;5048391;28;20114;-85
2023/01/18 07:50:26;;;;;;;14.57;8.53;;;-1.80;99.90;;;;;;5049085;28;20064;-84
2023/01/18 07:52:52;;;;;;;12.63;8.70;;;-1.70;99.90;;;;;;5048452;28;20037;-85
2023/01/18 07:55:19;;;;;;;13.73;9.30;;;-0.60;99.90;;;;;;5049953;28;20102;-86
2023/01/18 07:57:45;;;;;;;13.37;8.57;;;-1.70;99.90;;;;;;5049896;28;20334;-85
2023/01/18 08:00:12;;;;;;;13.43;8.43;;;-1.70;99.90;;;;;;5050024;28;20033;-85
2023/01/18 08:02:38;;;;;;;13.47;7.77;;;-1.60;99.90;;;;;;5033393;28;20029;-84
2023/01/18 08:05:04;;;;;;;12.40;7.67;;;-1.60;99.90;;;;;;5050263;28;20051;-85
2023/01/18 08:07:32;;;;;;;13.57;8.00;;;-1.60;99.90;;;;;;5033114;28;20037;-85
2023/01/18 08:09:58;;;;;;;13.77;7.90;;;-1.60;99.90;;;;;;5049986;28;20045;-84
2023/01/18 08:12:23;;;;;;;14.50;7.73;;;-1.50;99.90;;;;;;5033294;28;20047;-84
2023/01/18 08:14:49;;;;;;;13.83;8.07;;;-1.50;99.90;;;;;;5030599;28;20414;-84
2023/01/18 08:17:14;;;;;;;13.27;7.87;;;-1.50;99.90;;;;;;5013322;28;20045;-84
2023/01/18 08:19:40;;;;;;;10.57;7.17;;;-1.50;99.90;;;;;;5038213;28;20580;-84
2023/01/18 08:22:07;;;;;;;13.23;7.27;;;-1.50;99.90;;;;;;5050938;28;20040;-84
2023/01/18 08:24:32;;;;;;;10.57;6.87;;;-1.40;99.90;;;;;;5036306;28;20033;-84
2023/01/18 08:26:58;;;;;;;11.87;7.37;;;-1.40;99.90;;;;;;5019299;28;20098;-85
2023/01/18 08:29:23;;;;;;;11.40;6.87;;;-1.40;99.90;;;;;;5049546;28;20502;-84
2023/01/18 08:31:54;;;;;;;12.53;6.63;;;-1.20;99.90;;;;;;5050075;28;20052;-84
2023/01/18 08:34:20;;;;;;;11.17;6.93;;;-1.20;99.90;;;;;;5033100;28;20041;-84
2023/01/18 08:36:46;;;;;;;12.87;7.33;;;-1.20;99.90;;;;;;5049460;28;20510;-83
2023/01/18 08:39:13;;;;;;;10.73;6.90;;;-1.20;99.90;;;;;;5049401;28;20041;-83
2023/01/18 08:41:40;;;;;;;11.23;7.07;;;-1.10;99.90;;;;;;5049447;28;20068;-83
2023/01/18 08:44:05;;;;;;;14.17;6.97;;;-1.00;99.90;;;;;;5036970;28;20037;-83
2023/01/18 08:46:31;;;;;;;8.63;6.13;;;-1.00;99.90;;;;;;5028241;28;20044;-83
2023/01/18 08:48:58;;;;;;;9.90;6.87;;;-0.90;99.90;;;;;;5027317;28;20091;-82
2023/01/18 08:51:24;;;;;;;11.67;6.17;;;-0.90;99.90;;;;;;5027442;28;20111;-83
2023/01/18 08:53:52;;;;;;;13.50;6.27;;;-0.80;99.90;;;;;;5032388;28;20049;-82
2023/01/18 08:56:19;;;;;;;10.73;6.30;;;-0.80;99.90;;;;;;5024324;28;20041;-82
2023/01/18 08:58:44;;;;;;;10.77;6.63;;;-0.80;99.90;;;;;;5052807;28;20709;-82
2023/01/18 09:01:10;;;;;;;9.87;6.30;;;-0.80;99.90;;;;;;5052946;28;20051;-83
2023/01/18 09:03:36;;;;;;;11.80;6.87;;;-0.70;99.90;;;;;;5036225;28;20040;-82
2023/01/18 09:06:04;;;;;;;11.63;7.20;;;-0.70;99.90;;;;;;5052172;28;20402;-83
2023/01/18 09:08:30;;;;;;;10.13;6.33;;;-0.60;99.90;;;;;;5052887;28;20132;-82
2023/01/18 09:11:04;;;;;;;9.80;6.20;;;-0.60;99.90;;;;;;5042615;28;20049;-83
2023/01/18 09:13:30;;;;;;;10.48;6.20;;;-0.60;99.90;;;;;;5034068;28;20077;-82
2023/01/18 09:16:01;;;;;;;11.57;6.67;;;-0.60;99.90;;;;;;5048198;28;20048;-82
2023/01/18 09:18:27;;;;;;;10.33;6.10;;;-0.50;99.90;;;;;;5052093;28;20044;-82
2023/01/18 09:20:53;;;;;;;13.10;6.97;;;-0.50;99.90;;;;;;5052573;28;20033;-82
2023/01/18 09:23:19;;;;;;;11.73;6.70;;;-0.40;99.90;;;;;;5051001;28;20037;-82
2023/01/18 09:25:44;;;;;;;12.00;6.23;;;-0.40;99.90;;;;;;5051515;28;20453;-81
2023/01/18 09:28:11;;;;;;;10.07;5.90;;;-0.30;99.90;;;;;;5051952;28;20453;-81
2023/01/18 09:30:37;;;;;;;8.73;6.23;;;-0.30;99.90;;;;;;5051639;28;20037;-82
2023/01/18 09:33:03;;;;;;;8.10;5.67;;;-0.30;99.90;;;;;;5052360;28;20568;-82
2023/01/18 09:35:30;;;;;;;12.87;6.30;;;-0.20;99.90;;;;;;5040230;28;20044;-81
2023/01/18 09:37:56;;;;;;;10.53;6.37;;;-0.10;99.90;;;;;;5035090;28;20041;-81
2023/01/18 09:40:29;;;;;;;10.70;6.30;;;-0.10;99.90;;;;;;5052337;28;20428;-81
2023/01/18 09:42:55;;;;;;;10.43;6.20;;;0.00;99.90;;;;;;5051369;28;20037;-81
2023/01/18 09:45:31;;;;;;;11.97;6.50;;;0.00;99.90;;;;;;5050584;28;20052;-81
2023/01/18 09:48:15;;;;;;;10.93;6.10;;;0.10;99.90;;;;;;5049880;28;20448;-81
2023/01/18 09:50:44;;;;;;;8.57;5.72;;;0.20;99.90;;;;;;5053053;28;20076;-82
2023/01/18 09:54:10;;;;;;;9.77;6.30;;;0.20;99.90;;;;;;5046612;28;20041;-81
2023/01/18 09:56:50;;;;;;;9.40;6.00;;;0.30;99.90;;;;;;4994047;28;20080;-82
2023/01/18 09:59:22;;;;;;;9.77;5.80;;;0.40;99.90;;;;;;4996860;28;20046;-82
2023/01/18 10:01:48;;;;;;;9.50;5.90;;;0.40;99.90;;;;;;5022814;28;20116;-82
2023/01/18 10:04:17;;;;;;;12.67;5.87;;;1.30;99.90;;;;;;5048848;28;20398;-82
2023/01/18 10:07:00;;;;;;;10.27;6.00;;;0.60;99.90;;;;;;5033933;28;20045;-83
2023/01/18 10:09:39;;;;;;;10.52;6.43;;;0.70;99.90;;;;;;5049400;28;20045;-82
2023/01/18 10:12:49;;;;;;;8.93;6.00;;;0.80;99.90;;;;;;5051165;28;20040;-85
2023/01/18 10:15:19;;;;;;;9.43;5.83;;;0.90;99.90;;;;;;5038487;28;20053;-85
2023/01/18 10:17:45;;;;;;;12.10;6.60;;;1.00;99.90;;;;;;5050668;28;20413;-84
2023/01/18 10:20:44;;;;;;;9.67;6.30;;;1.00;99.90;;;;;;5034265;28;20068;-86
2023/01/18 10:23:24;;;;;;;8.47;6.03;;;1.10;99.90;;;;;;5051013;28;20033;-85
2023/01/18 10:26:08;;;;;;;8.50;5.90;;;1.10;99.90;;;;;;5051205;28;20041;-85
2023/01/18 10:29:00;;;;;;;9.82;6.25;;;1.20;99.90;;;;;;5034318;28;20047;-86
2023/01/18 10:31:51;;;;;;;10.43;6.10;;;1.20;99.90;;;;;;5050692;28;20123;-86
2023/01/18 10:34:23;;;;;;;10.30;6.53;;;1.20;99.90;;;;;;5051360;28;20534;-86
2023/01/18 10:37:04;;;;;;;8.57;5.90;;;1.30;99.90;;;;;;5052934;28;20384;-85
2023/01/18 10:39:36;;;;;;;9.00;5.83;;;1.30;99.90;;;;;;5047720;28;20041;-84
2023/01/18 10:42:07;;;;;;;10.70;6.30;;;1.40;99.90;;;;;;5040206;28;20032;-85
2023/01/18 10:44:33;;;;;;;11.70;6.80;;;1.40;99.90;;;;;;5034516;28;20041;-84
2023/01/18 10:46:59;;;;;;;9.63;6.33;;;1.50;99.90;;;;;;5050953;28;20102;-85
2023/01/18 10:49:41;;;;;;;10.00;6.13;;;1.60;99.90;;;;;;5050722;28;20041;-84
2023/01/18 10:52:25;;;;;;;10.20;6.20;;;1.60;99.90;;;;;;5033838;28;20110;-86
2023/01/18 10:54:51;;;;;;;;;;;1.70;99.90;;;;;;5051094;28;20053;-85
2023/01/18 10:57:25;;;;;;;10.93;6.77;;;1.80;99.90;;;;;;5050475;28;20310;-85
2023/01/18 10:59:54;;;;;;;;;;;1.90;99.90;;;;;;5049213;28;20029;-85
2023/01/18 11:02:28;;;;;;;10.47;6.03;;;2.00;99.90;;;;;;5033999;28;20443;-83
2023/01/18 11:04:58;;;;;;;10.17;5.97;;;2.00;99.90;;;;;;5033082;28;20067;-84
2023/01/18 11:07:25;;;;;;;9.73;6.10;;;2.20;99.90;;;;;;5051915;28;20041;-82
2023/01/18 11:09:58;;;;;;;8.43;5.87;;;2.20;99.90;;;;;;5032859;28;20045;-82
2023/01/18 11:12:46;;;;;;;9.57;5.80;;;2.30;99.90;;;;;;5048463;28;20557;-80
2023/01/18 11:15:15;;;;;;;8.30;5.60;;;2.30;99.90;;;;;;5050021;28;20048;-82
2023/01/18 11:17:43;;;;;;;8.77;5.30;;;2.40;99.90;;;;;;5033307;28;20052;-81
2023/01/18 11:20:28;;;;;;;9.53;5.60;;;2.40;99.90;;;;;;5049626;28;20090;-82
2023/01/18 11:23:05;;;;;;;8.43;4.97;;;2.60;99.90;;;;;;5049608;28;20044;-82
2023/01/18 11:25:35;;;;;;;10.53;5.40;;;2.70;99.90;;;;;;5014674;28;20034;-82
2023/01/18 11:28:03;;;;;;;9.33;5.27;;;2.70;99.90;;;;;;5040345;28;20098;-83
2023/01/18 11:30:28;;;;;;;7.87;4.80;;;3.30;99.90;;;;;;5033742;28;20044;-82
2023/01/18 11:32:58;;;;;;;9.88;5.53;;;2.90;99.90;;;;;;5050143;28;20120;-82
2023/01/18 11:35:33;;;;;;;8.38;4.78;;;3.00;99.90;;;;;;5033622;28;20410;-82
2023/01/18 11:38:01;;;;;;;9.40;5.30;;;3.00;99.90;;;;;;5049195;28;20037;-81
2023/01/18 11:40:29;;;;;;;9.30;4.90;;;2.90;99.90;;;;;;5049929;28;20144;-81
2023/01/18 11:43:08;;;;;;;8.60;4.95;;;3.00;99.90;;;;;;5047810;28;20116;-82
2023/01/18 11:45:49;;;;;;;10.60;5.00;;;3.10;99.90;;;;;;5049483;28;20139;-82
2023/01/18 11:48:31;;;;;;;8.82;4.80;;;3.10;99.90;;;;;;5049493;28;20039;-82
2023/01/18 11:51:14;;;;;;;8.70;5.05;;;3.10;99.90;;;;;;5049953;28;20065;-82
2023/01/18 11:53:44;;;;;;;7.82;4.88;;;3.20;99.90;;;;;;5049973;28;20409;-82
2023/01/18 11:56:40;;;;;;;8.70;5.38;;;3.30;99.90;;;;;;5049653;28;20041;-81
2023/01/18 11:59:17;;;;;;;7.22;5.00;;;3.30;99.90;;;;;;5045313;28;20079;-82
2023/01/18 12:02:23;;;;;;;7.38;4.72;;;3.40;99.90;;;;;;5031624;28;20040;-82
2023/01/18 12:05:10;;;;;;;8.43;5.20;;;3.40;99.90;;;;;;5034374;28;20402;-82
2023/01/18 12:08:03;;;;;;;9.40;5.30;;;3.40;99.90;;;;;;5032185;28;20067;-83
2023/01/18 12:11:12;;;;;;;8.00;5.63;;;3.50;99.90;;;;;;5040972;28;20077;-82
2023/01/18 12:13:48;;;;;;;7.38;4.40;;;3.50;99.90;;;;;;5048224;28;20041;-82
2023/01/18 12:16:32;;;;;;;7.50;4.63;;;3.70;99.90;;;;;;5033065;28;20467;-83
2023/01/18 12:19:19;;;;;;;9.63;4.20;;;3.70;99.90;;;;;;5049268;28;20090;-83
2023/01/18 12:22:10;;;;;;;7.10;4.38;;;3.80;99.90;;;;;;5049317;28;20041;-82
2023/01/18 12:24:57;;;;;;;9.40;4.50;;;3.90;99.90;;;;;;5049588;28;20041;-82
2023/01/18 12:27:22;;;;;;;10.23;4.72;;;3.90;99.90;;;;;;5049897;28;20052;-83
2023/01/18 12:30:04;;;;;;;7.50;3.97;;;3.80;99.90;;;;;;5053055;28;20052;-82
2023/01/18 12:32:54;;;;;;;6.05;4.05;;;3.70;99.90;;;;;;5052911;28;20044;-82
2023/01/18 12:35:50;;;;;;;7.07;4.18;;;3.70;99.90;;;;;;5053109;28;20072;-82
2023/01/18 12:38:31;;;;;;;6.65;4.10;;;3.70;99.90;;;;;;5052711;28;20056;-82
2023/01/18 12:41:09;;;;;;;6.35;3.95;;;4.00;99.90;;;;;;5053387;28;20056;-83
2023/01/18 12:43:44;;;;;;;9.07;4.45;;;4.00;99.90;;;;;;5036445;28;20041;-82
2023/01/18 12:46:15;;;;;;;7.50;3.90;;;4.00;99.90;;;;;;5053612;28;20049;-82
2023/01/18 12:48:59;;;;;;;6.22;4.07;;;4.00;99.90;;;;;;5036912;28;20041;-83
2023/01/18 12:51:29;;;;;;;9.13;4.68;;;3.90;99.90;;;;;;5046963;28;20045;-82
2023/01/18 12:53:58;;;;;;;9.07;5.13;;;4.10;99.90;;;;;;5051437;28;20033;-82
2023/01/18 12:56:36;;;;;;;6.20;4.25;;;4.30;99.90;;;;;;5051463;28;20527;-81
2023/01/18 12:59:07;;;;;;;9.75;4.72;;;4.50;99.90;;;;;;5051299;28;20083;-82
2023/01/18 13:01:46;;;;;;;8.98;4.72;;;4.70;99.90;;;;;;5035356;28;20048;-82
2023/01/18 13:04:26;;;;;;;7.60;4.30;;;4.70;99.90;;;;;;5051812;28;20056;-82
2023/01/18 13:06:56;;;;;;;8.88;4.30;;;4.70;99.90;;;;;;5052607;28;20314;-83
2023/01/18 13:09:31;;;;;;;7.55;4.30;;;4.60;99.90;;;;;;5052782;28;20465;-82
2023/01/18 13:12:03;;;;;;;7.00;4.15;;;4.40;99.90;;;;;;5053259;28;20041;-82
2023/01/18 13:14:37;;;;;;;8.93;4.60;;;4.20;99.90;;;;;;5053115;28;20049;-82
2023/01/18 13:17:45;;;;;;;7.43;3.40;;;4.00;99.90;;;;;;5036449;28;20045;-82
2023/01/18 13:20:10;;;;;;;6.70;3.90;;;3.90;99.90;;;;;;5052420;28;20036;-83
2023/01/18 13:22:55;;;;;;;9.00;4.07;;;3.80;99.90;;;;;;5052714;28;20079;-83
2023/01/18 13:25:40;;;;;;;6.15;3.80;;;3.70;99.90;;;;;;5036117;28;20036;-83
2023/01/18 13:28:18;;;;;;;8.10;3.97;;;3.70;99.90;;;;;;5052111;28;20049;-82
2023/01/18 13:31:05;;;;;;;6.93;3.80;;;3.80;99.90;;;;;;5052437;28;20048;-82
2023/01/18 13:33:36;;;;;;;5.28;3.90;;;3.80;99.90;;;;;;5058643;28;20059;-82